Time;durP1;ratioP1;P1;durP2;ratioP2;P2;SDS_P1;SDS_P2;PMS_P1;PMS_P2;Temp;Humidity;BMP_temperature;BMP_pressure;BME280_temperature;BME280_humidity;BME280_pressure;Samples;Min_cycle;Max_cycle;Signal;HPM_P1;HPM_P2
2022/12/14 00:02:11;;;;;;;129.82;43.00;;;;;;;;;;5034460;28;20037;-77
2022/12/14 00:04:37;;;;;;;120.15;41.33;;;;;;;;;;5036677;28;20069;-78
2022/12/14 00:07:03;;;;;;;124.78;42.42;;;;;;;;;;5037129;28;20042;-77
2022/12/14 00:09:29;;;;;;;122.50;42.72;;;;;;;;;;5001608;28;20037;-78
2022/12/14 00:11:55;;;;;;;122.18;43.78;;;;;;;;;;5035423;28;20357;-78
2022/12/14 00:14:21;;;;;;;120.03;41.55;;;;;;;;;;5033989;28;20072;-78
2022/12/14 00:16:47;;;;;;;134.32;43.70;;;;;;;;;;5033661;28;20041;-78
2022/12/14 00:19:14;;;;;;;120.80;43.65;;;;;;;;;;5017156;28;20038;-78
2022/12/14 00:21:41;;;;;;;114.43;42.15;;;;;;;;;;5033583;28;20053;-80
2022/12/14 00:24:07;;;;;;;122.95;41.95;;;;;;;;;;5015211;28;20045;-79
2022/12/14 00:26:33;;;;;;;140.02;42.88;;;;;;;;;;5016480;28;20122;-79
2022/12/14 00:29:00;;;;;;;120.15;41.28;;;;;;;;;;5001005;28;20030;-78
2022/12/14 00:31:27;;;;;;;127.05;42.33;;;;;;;;;;5016945;28;20029;-78
2022/12/14 00:33:54;;;;;;;126.50;42.72;;;;;;;;;;5033099;28;20049;-78
2022/12/14 00:36:20;;;;;;;123.55;43.38;;;;;;;;;;5014743;28;20058;-78
2022/12/14 00:38:46;;;;;;;125.03;42.10;;;;;;;;;;5033687;28;20045;-79
2022/12/14 00:41:13;;;;;;;121.15;41.60;;;;;;;;;;5033052;28;20099;-78
2022/12/14 00:43:39;;;;;;;128.35;43.55;;;;;;;;;;5016565;28;20045;-76
2022/12/14 00:46:05;;;;;;;131.45;43.65;;;;;;;;;;5016702;28;20056;-76
2022/12/14 00:48:31;;;;;;;121.25;40.75;;;;;;;;;;5032664;28;20473;-78
2022/12/14 00:50:57;;;;;;;122.93;42.70;;;;;;;;;;5016839;28;20037;-79
2022/12/14 00:53:23;;;;;;;129.15;43.65;;;;;;;;;;5032919;28;20064;-78
2022/12/14 00:55:49;;;;;;;125.57;42.78;;;;;;;;;;5015650;28;20068;-79
2022/12/14 00:58:17;;;;;;;129.52;42.67;;;;;;;;;;5032816;28;20041;-79
2022/12/14 01:00:43;;;;;;;118.50;42.45;;;;;;;;;;5032453;28;20555;-78
2022/12/14 01:03:10;;;;;;;126.07;43.97;;;;;;;;;;5032719;28;20029;-78
2022/12/14 01:05:36;;;;;;;116.22;41.70;;;;;;;;;;5032449;28;20040;-79
2022/12/14 01:08:02;;;;;;;124.28;42.28;;;;;;;;;;5016394;28;20120;-79
2022/12/14 01:10:28;;;;;;;129.55;41.40;;;;;;;;;;5032505;28;20440;-79
2022/12/14 01:12:54;;;;;;;136.48;43.63;;;;;;;;;;5032071;28;20049;-76
2022/12/14 01:15:21;;;;;;;131.38;42.63;;;;;;;;;;5013685;28;20477;-76
2022/12/14 01:17:47;;;;;;;117.32;41.20;;;;;;;;;;5016061;28;20109;-76
2022/12/14 01:20:13;;;;;;;130.68;44.20;;;;;;;;;;5032372;28;20041;-76
2022/12/14 01:22:39;;;;;;;119.15;41.25;;;;;;;;;;5030978;28;20049;-76
2022/12/14 01:25:05;;;;;;;131.65;43.00;;;;;;;;;;5015884;28;20038;-76
2022/12/14 01:27:31;;;;;;;124.80;42.38;;;;;;;;;;5032348;28;20551;-76
2022/12/14 01:29:57;;;;;;;128.88;40.85;;;;;;;;;;5031812;28;20482;-76
2022/12/14 01:32:23;;;;;;;133.13;42.13;;;;;;;;;;5032111;28;20489;-76
2022/12/14 01:34:50;;;;;;;117.78;40.28;;;;;;;;;;5034520;28;20046;-76
2022/12/14 01:37:16;;;;;;;128.70;40.28;;;;;;;;;;5033853;28;20227;-76
2022/12/14 01:39:42;;;;;;;118.78;40.35;;;;;;;;;;5015934;28;20041;-76
2022/12/14 01:42:11;;;;;;;122.80;42.20;;;;;;;;;;5013612;28;20080;-76
2022/12/14 01:44:43;;;;;;;121.13;43.03;;;;;;;;;;5031897;28;20045;-76
2022/12/14 01:47:28;;;;;;;129.95;43.60;;;;;;;;;;5015691;28;20477;-76
2022/12/14 01:49:57;;;;;;;122.68;40.63;;;;;;;;;;5029642;28;20513;-76
2022/12/14 01:52:26;;;;;;;122.40;41.55;;;;;;;;;;5031843;28;20112;-76
2022/12/14 01:55:10;;;;;;;112.65;39.17;;;;;;;;;;5031944;28;20124;-76
2022/12/14 01:57:39;;;;;;;119.22;39.17;;;;;;;;;;5015444;28;20401;-76
2022/12/14 02:00:07;;;;;;;122.65;38.72;;;;;;;;;;5031776;28;20394;-77
2022/12/14 02:02:34;;;;;;;114.05;40.05;;;;;;;;;;5031819;28;20077;-76
2022/12/14 02:05:02;;;;;;;111.80;38.95;;;;;;;;;;5015298;28;20037;-76
2022/12/14 02:07:29;;;;;;;111.57;40.00;;;;;;;;;;5030989;28;20507;-77
2022/12/14 02:09:56;;;;;;;116.25;39.60;;;;;;;;;;5014961;28;20034;-76
2022/12/14 02:12:28;;;;;;;117.45;40.65;;;;;;;;;;5031581;28;20033;-76
2022/12/14 02:14:54;;;;;;;108.25;37.95;;;;;;;;;;5028725;28;20061;-76
2022/12/14 02:17:21;;;;;;;116.78;41.40;;;;;;;;;;5033151;28;20037;-76
2022/12/14 02:19:48;;;;;;;119.88;38.83;;;;;;;;;;5031514;28;20041;-76
2022/12/14 02:22:20;;;;;;;110.22;38.88;;;;;;;;;;5015696;28;20060;-76
2022/12/14 02:24:46;;;;;;;103.90;37.40;;;;;;;;;;5030923;28;20037;-76
2022/12/14 02:27:21;;;;;;;108.25;37.53;;;;;;;;;;5031035;28;20044;-76
2022/12/14 02:29:48;;;;;;;116.45;38.38;;;;;;;;;;5015031;28;20049;-76
2022/12/14 02:32:13;;;;;;;114.28;37.25;;;;;;;;;;5030596;28;20061;-76
2022/12/14 02:35:06;;;;;;;107.97;37.30;;;;;;;;;;5028942;28;20037;-76
2022/12/14 02:37:32;;;;;;;107.50;38.28;;;;;;;;;;5031195;28;20068;-76
2022/12/14 02:40:04;;;;;;;94.55;35.47;;;;;;;;;;5034591;28;20036;-76
2022/12/14 02:42:55;;;;;;;117.32;38.58;;;-3.40;99.90;;;;;;5034199;28;20488;-77
2022/12/14 02:45:34;;;;;;;108.50;35.53;;;;;;;;;;5033441;28;20041;-76
2022/12/14 02:48:06;;;;;;;123.85;39.30;;;-3.40;99.90;;;;;;5033050;28;20037;-76
2022/12/14 02:50:46;;;;;;;105.78;37.20;;;;;;;;;;5034262;28;20068;-76
2022/12/14 02:53:16;;;;;;;109.53;38.28;;;;;;;;;;5033402;28;20622;-76
2022/12/14 02:55:48;;;;;;;106.25;37.08;;;;;;;;;;5032432;28;20044;-76
2022/12/14 02:58:17;;;;;;;107.97;37.65;;;;;;;;;;5034335;28;20388;-76
2022/12/14 03:00:44;;;;;;;122.80;39.03;;;;;;;;;;5017496;28;20033;-79
2022/12/14 03:03:10;;;;;;;107.63;36.80;;;;;;;;;;5034075;28;20041;-79
2022/12/14 03:05:36;;;;;;;101.32;37.67;;;;;;;;;;5033981;28;20128;-79
2022/12/14 03:08:07;;;;;;;104.72;37.92;;;;;;;;;;5017635;28;20037;-79
2022/12/14 03:10:49;;;;;;;114.93;38.00;;;;;;;;;;5033646;28;20041;-80
2022/12/14 03:13:20;;;;;;;108.68;37.13;;;;;;;;;;5033681;28;20033;-80
2022/12/14 03:15:48;;;;;;;110.00;38.42;;;;;;;;;;5033861;28;20110;-79
2022/12/14 03:18:17;;;;;;;116.53;40.92;;;;;;;;;;5017423;28;20045;-77
2022/12/14 03:20:44;;;;;;;102.97;37.67;;;;;;;;;;5033642;28;20037;-77
2022/12/14 03:23:16;;;;;;;94.10;37.20;;;;;;;;;;5033525;28;20402;-77
2022/12/14 03:25:42;;;;;;;;;;;;;;;;;;5033677;28;20043;-76
2022/12/14 03:28:17;;;;;;;105.60;37.97;;;;;;;;;;5033204;28;19916;-76
2022/12/14 03:30:46;;;;;;;91.65;34.28;;;;;;;;;;5033396;28;20489;-76
2022/12/14 03:33:14;;;;;;;91.10;34.55;;;;;;;;;;5033147;28;20044;-76
2022/12/14 03:35:56;;;;;;;95.72;36.85;;;;;;;;;;5033042;28;20096;-76
2022/12/14 03:38:32;;;;;;;108.80;38.30;;;;;;;;;;5031646;28;20116;-76
2022/12/14 03:41:19;;;;;;;100.72;36.80;;;;;;;;;;5033342;28;20687;-77
2022/12/14 03:43:48;;;;;;;95.68;36.15;;;;;;;;;;5016471;28;20048;-77
2022/12/14 03:46:17;;;;;;;99.47;37.00;;;;;;;;;;5036774;28;20059;-77
2022/12/14 03:48:47;;;;;;;92.60;34.30;;;;;;;;;;5037733;28;20040;-75
2022/12/14 03:51:19;;;;;;;95.05;36.05;;;;;;;;;;5036618;28;20033;-76
2022/12/14 03:54:01;;;;;;;105.18;35.45;;;;;;;;;;5037755;28;20072;-76
2022/12/14 03:56:48;;;;;;;91.20;33.92;;;-4.00;99.90;;;;;;5036681;28;20040;-77
2022/12/14 03:59:26;;;;;;;91.30;32.47;;;;;;;;;;5037537;28;20179;-77
2022/12/14 04:01:55;;;;;;;89.55;32.30;;;;;;;;;;5036753;28;20036;-77
2022/12/14 04:04:25;;;;;;;91.45;33.88;;;;;;;;;;5037067;28;20122;-77
2022/12/14 04:06:59;;;;;;;99.40;34.78;;;;;;;;;;5037002;28;20400;-76
2022/12/14 04:09:37;;;;;;;96.95;35.30;;;;;;;;;;5036788;28;20056;-76
2022/12/14 04:20:42;;;;;;;83.47;32.42;;;;;;;;;;5036639;28;20044;-77
2022/12/14 04:26:01;;;;;;;84.60;32.28;;;;;;;;;;5037021;28;20397;-77
2022/12/14 04:26:05;;;;;;;85.15;32.08;;;;;;;;;;5036647;28;20507;-79
2022/12/14 04:31:24;;;;;;;95.78;34.55;;;;;;;;;;5036640;28;20132;-78
2022/12/14 04:33:54;;;;;;;93.68;34.78;;;;;;;;;;5036831;28;20068;-77
2022/12/14 04:36:23;;;;;;;89.82;34.75;;;;;;;;;;5032603;28;20049;-77
2022/12/14 04:38:53;;;;;;;84.32;34.72;;;;;;;;;;5016663;28;20037;-80
2022/12/14 04:41:21;;;;;;;85.45;32.28;;;;;;;;;;5015568;28;20116;-80
2022/12/14 04:43:53;;;;;;;75.65;30.98;;;;;;;;;;5032271;28;20046;-80
2022/12/14 04:46:22;;;;;;;86.43;32.75;;;;;;;;;;5033438;28;20075;-80
2022/12/14 04:48:48;;;;;;;83.55;31.50;;;;;;;;;;5033227;28;20120;-80
2022/12/14 04:51:19;;;;;;;75.38;30.25;;;;;;;;;;5033264;28;20375;-80
2022/12/14 04:53:48;;;;;;;84.25;31.70;;;;;;;;;;5000473;28;20144;-80
2022/12/14 04:56:19;;;;;;;70.60;28.67;;;;;;;;;;5035728;28;20087;-79
2022/12/14 04:58:45;;;;;;;80.38;31.13;;;;;;;;;;5038244;28;20092;-80
2022/12/14 05:01:29;;;;;;;67.45;29.23;;;;;;;;;;5036783;28;20080;-80
2022/12/14 05:04:07;;;;;;;79.43;29.50;;;;;;;;;;5035818;28;20405;-81
2022/12/14 05:06:38;;;;;;;75.25;31.10;;;;;;;;;;5033864;28;20037;-80
2022/12/14 05:09:14;;;;;;;73.40;28.95;;;;;;;;;;5016090;28;20504;-80
2022/12/14 05:12:02;;;;;;;74.80;31.75;;;;;;;;;;5033201;28;20552;-79
2022/12/14 05:14:43;;;;;;;77.97;29.45;;;;;;;;;;5014332;28;20034;-79
2022/12/14 05:17:10;;;;;;;79.28;31.63;;;;;;;;;;5016349;28;20508;-79
2022/12/14 05:19:36;;;;;;;71.97;28.35;;;;;;;;;;5016779;28;20040;-79
2022/12/14 05:22:05;;;;;;;80.10;31.50;;;;;;;;;;5017406;28;20037;-79
2022/12/14 05:24:31;;;;;;;64.82;27.13;;;;;;;;;;5032515;28;20125;-78
2022/12/14 05:26:57;;;;;;;67.90;28.23;;;;;;;;;;4999975;28;20471;-79
2022/12/14 05:29:23;;;;;;;69.57;30.30;;;;;;;;;;5016052;28;20494;-78
2022/12/14 05:31:50;;;;;;;72.28;28.73;;;;;;;;;;5016047;28;20033;-79
2022/12/14 05:34:17;;;;;;;71.47;28.65;;;;;;;;;;4999747;28;20037;-78
2022/12/14 05:36:43;;;;;;;66.97;27.90;;;;;;;;;;5015834;28;20068;-79
2022/12/14 05:39:09;;;;;;;71.03;28.17;;;;;;;;;;5030122;28;20171;-79
2022/12/14 05:41:35;;;;;;;68.57;28.00;;;;;;;;;;5032025;28;20041;-79
2022/12/14 05:44:01;;;;;;;75.15;29.92;;;;;;;;;;5032226;28;20566;-79
2022/12/14 05:46:27;;;;;;;68.93;29.95;;;;;;;;;;5016239;28;20389;-79
2022/12/14 05:48:53;;;;;;;66.18;28.38;;;;;;;;;;5032131;28;20504;-79
2022/12/14 05:51:19;;;;;;;79.32;29.35;;;;;;;;;;5029902;28;20040;-79
2022/12/14 05:53:45;;;;;;;65.63;28.70;;;;;;;;;;5032063;28;20151;-79
2022/12/14 05:56:11;;;;;;;70.63;29.60;;;;;;;;;;5015974;28;20037;-78
2022/12/14 05:58:38;;;;;;;70.55;28.42;;;;;;;;;;5015926;28;20216;-78
2022/12/14 06:01:08;;;;;;;67.18;27.77;;;;;;;;;;5015528;28;20064;-78
2022/12/14 06:03:34;;;;;;;71.03;28.20;;;;;;;;;;5030314;28;20045;-78
2022/12/14 06:06:05;;;;;;;68.57;29.20;;;;;;;;;;5031996;28;20112;-79
2022/12/14 06:08:32;;;;;;;75.25;28.02;;;;;;;;;;5031215;28;20045;-78
2022/12/14 06:11:09;;;;;;;77.55;29.88;;;;;;;;;;5015299;28;20033;-79
2022/12/14 06:13:36;;;;;;;81.75;32.05;;;;;;;;;;5031689;28;20556;-79
2022/12/14 06:16:12;;;;;;;64.60;28.85;;;;;;;;;;5013102;28;20033;-79
2022/12/14 06:18:46;;;;;;;69.88;28.40;;;;;;;;;;5015000;28;20034;-79
2022/12/14 06:21:12;;;;;;;77.13;29.55;;;;;;;;;;5030383;28;20029;-79
2022/12/14 06:23:39;;;;;;;64.88;27.48;;;;;;;;;;5015152;28;20037;-79
2022/12/14 06:26:05;;;;;;;66.82;28.85;;;;;;;;;;5031295;28;20034;-79
2022/12/14 06:28:31;;;;;;;71.55;27.30;;;;;;;;;;5031220;28;20557;-79
2022/12/14 06:30:57;;;;;;;64.32;26.73;;;;;;;;;;5031573;28;20037;-71
2022/12/14 06:33:24;;;;;;;69.07;28.35;;;;;;;;;;5031479;28;20065;-78
2022/12/14 06:35:50;;;;;;;69.72;28.35;;;;;;;;;;5031286;28;20057;-78
2022/12/14 06:38:16;;;;;;;68.25;28.17;;;;;;;;;;4998349;28;20116;-78
2022/12/14 06:40:42;;;;;;;70.32;28.58;;;;;;;;;;5014876;28;20088;-79
2022/12/14 06:43:09;;;;;;;68.63;26.92;;;;;;;;;;5031348;28;20087;-78
2022/12/14 06:45:35;;;;;;;62.15;28.70;;;;;;;;;;5014503;28;20045;-78
2022/12/14 06:48:01;;;;;;;61.35;26.50;;;;;;;;;;5030933;28;20037;-78
2022/12/14 06:50:27;;;;;;;71.30;27.98;;;;;;;;;;5025926;28;20452;-80
2022/12/14 06:52:57;;;;;;;65.03;26.95;;;;;;;;;;5028917;28;20044;-78
2022/12/14 06:55:26;;;;;;;76.55;28.00;;;;;;;;;;5030523;28;20042;-79
2022/12/14 06:57:53;;;;;;;75.47;28.17;;;;;;;;;;5030804;28;20401;-78
2022/12/14 07:00:20;;;;;;;70.20;27.77;;;;;;;;;;5031600;28;20091;-78
2022/12/14 07:02:46;;;;;;;68.82;26.80;;;;;;;;;;5015800;28;20124;-78
2022/12/14 07:05:13;;;;;;;84.70;27.90;;;;;;;;;;5015517;28;20106;-77
2022/12/14 07:07:39;;;;;;;61.72;27.40;;;;;;;;;;5031999;28;20082;-78
2022/12/14 07:10:07;;;;;;;69.72;29.42;;;;;;;;;;5032122;28;20098;-78
2022/12/14 07:12:33;;;;;;;63.33;27.15;;;;;;;;;;5032176;28;20041;-78
2022/12/14 07:14:59;;;;;;;62.05;25.52;;;;;;;;;;5031874;28;20168;-77
2022/12/14 07:17:25;;;;;;;63.78;27.33;;;;;;;;;;5029168;28;20042;-77
2022/12/14 07:19:52;;;;;;;65.60;26.95;;;;;;;;;;4995621;28;20042;-77
2022/12/14 07:22:18;;;;;;;65.07;27.23;;;;;;;;;;5015209;28;20041;-78
2022/12/14 07:24:44;;;;;;;61.65;25.70;;;;;;;;;;5033444;28;20052;-77
2022/12/14 07:27:10;;;;;;;67.30;26.17;;;;;;;;;;5014988;28;20043;-78
2022/12/14 07:29:37;;;;;;;64.30;26.52;;;;;;;;;;5030969;28;20033;-78
2022/12/14 07:32:03;;;;;;;64.80;26.90;;;;;;;;;;5014789;28;20087;-78
2022/12/14 07:34:29;;;;;;;61.83;26.33;;;;;;;;;;5031260;28;20037;-77
2022/12/14 07:36:55;;;;;;;61.47;26.85;;;;;;;;;;5031110;28;20041;-78
2022/12/14 07:39:21;;;;;;;60.88;25.95;;;;;;;;;;4995723;28;20103;-78
2022/12/14 07:41:49;;;;;;;63.72;27.00;;;;;;;;;;5010779;28;20037;-77
2022/12/14 07:44:16;;;;;;;59.67;27.50;;;;;;;;;;5028867;28;20041;-77
2022/12/14 07:46:42;;;;;;;67.13;27.52;;;;;;;;;;5029277;28;20550;-78
2022/12/14 07:49:08;;;;;;;69.45;27.00;;;;;;;;;;5029682;28;20041;-78
2022/12/14 07:51:36;;;;;;;66.05;26.33;;;;;;;;;;5025452;28;20057;-77
2022/12/14 07:54:03;;;;;;;62.58;26.98;;;;;;;;;;5027862;28;20095;-78
2022/12/14 07:56:30;;;;;;;67.60;26.70;;;;;;;;;;5054456;28;20041;-78
2022/12/14 07:58:57;;;;;;;58.97;25.90;;;;;;;;;;5027123;28;20096;-79
2022/12/14 08:01:25;;;;;;;58.88;26.33;;;;;;;;;;5013956;28;20144;-78
2022/12/14 08:03:52;;;;;;;70.88;28.85;;;;;;;;;;5041006;28;20535;-78
2022/12/14 08:06:19;;;;;;;64.32;29.83;;;;;;;;;;5012684;28;20030;-78
2022/12/14 08:08:45;;;;;;;68.97;28.20;;;;;;;;;;5029049;28;20040;-78
2022/12/14 08:11:11;;;;;;;64.80;27.05;;;;;;;;;;5040908;28;20176;-78
2022/12/14 08:13:38;;;;;;;59.13;26.42;;;;;;;;;;5029852;28;20034;-78
2022/12/14 08:16:08;;;;;;;59.75;28.08;;;;;;;;;;5036910;28;20132;-78
2022/12/14 08:18:34;;;;;;;62.88;27.23;;;;;;;;;;5029749;28;20095;-78
2022/12/14 08:21:01;;;;;;;59.15;25.83;;;;;;;;;;5030705;28;20684;-78
2022/12/14 08:23:27;;;;;;;65.65;28.95;;;;;;;;;;5014531;28;20026;-77
2022/12/14 08:25:58;;;;;;;68.20;25.73;;;;;;;;;;5014288;28;20041;-78
2022/12/14 08:28:25;;;;;;;69.75;27.20;;;-5.00;99.90;;;;;;5031020;28;20041;-78
2022/12/14 08:30:51;;;;;;;68.57;27.17;;;;;;;;;;5014180;28;20045;-78
2022/12/14 08:33:18;;;;;;;59.15;26.38;;;;;;;;;;5032393;28;20033;-78
2022/12/14 08:35:44;;;;;;;63.08;27.38;;;;;;;;;;5028047;28;20084;-77
2022/12/14 08:38:10;;;;;;;61.28;26.15;;;;;;;;;;5030263;28;20543;-77
2022/12/14 08:40:37;;;;;;;62.15;26.90;;;;;;;;;;5033849;28;20037;-78
2022/12/14 08:43:04;;;;;;;66.68;28.40;;;;;;;;;;5017766;28;20037;-77
2022/12/14 08:45:30;;;;;;;62.03;26.88;;;;;;;;;;5034239;28;20043;-76
2022/12/14 08:47:57;;;;;;;64.30;27.30;;;;;;;;;;5017947;28;20389;-75
2022/12/14 08:50:23;;;;;;;69.97;28.02;;;;;;;;;;5016731;28;20069;-75
2022/12/14 08:52:49;;;;;;;66.50;29.27;;;;;;;;;;5016322;28;20033;-75
2022/12/14 08:55:15;;;;;;;67.60;28.85;;;;;;;;;;5016804;28;20393;-75
2022/12/14 08:57:41;;;;;;;67.55;28.00;;;;;;;;;;5032917;28;20076;-75
2022/12/14 09:00:08;;;;;;;66.95;27.58;;;;;;;;;;5032496;28;20490;-76
2022/12/14 09:02:34;;;;;;;62.67;27.98;;;;;;;;;;5032313;28;20528;-75
2022/12/14 09:05:00;;;;;;;65.28;28.15;;;;;;;;;;5015565;28;20041;-75
2022/12/14 09:07:27;;;;;;;69.30;29.60;;;;;;;;;;5000285;28;20060;-75
2022/12/14 09:09:53;;;;;;;70.43;28.85;;;;;;;;;;5033029;28;20091;-75
2022/12/14 09:12:19;;;;;;;61.58;27.48;;;;;;;;;;5000461;28;20038;-75
2022/12/14 09:14:48;;;;;;;74.28;28.02;;;;;;;;;;5034199;28;20619;-75
2022/12/14 09:17:14;;;;;;;73.32;30.00;;;;;;;;;;5033842;28;20382;-75
2022/12/14 09:19:40;;;;;;;70.07;27.40;;;;;;;;;;5017952;28;20064;-75
2022/12/14 09:22:07;;;;;;;65.30;26.88;;;;;;;;;;5034471;28;20393;-75
2022/12/14 09:24:33;;;;;;;66.20;27.35;;;;;;;;;;5034160;28;20095;-75
2022/12/14 09:27:00;;;;;;;64.47;25.50;;;;;;;;;;5034151;28;20044;-75
2022/12/14 09:29:27;;;;;;;74.60;27.65;;;;;;;;;;5017591;28;20103;-75
2022/12/14 09:31:53;;;;;;;70.38;27.45;;;;;;;;;;5017416;28;20040;-75
2022/12/14 09:34:20;;;;;;;63.30;27.42;;;;;;;;;;5017510;28;20369;-75
2022/12/14 09:36:47;;;;;;;63.47;27.00;;;;;;;;;;5000877;28;20066;-75
2022/12/14 09:39:13;;;;;;;62.80;24.80;;;;;;;;;;5017111;28;20052;-75
2022/12/14 09:41:59;;;;;;;65.93;25.70;;;;;;;;;;5033401;28;20047;-75
2022/12/14 09:44:43;;;;;;;70.95;27.67;;;;;;;;;;5033439;28;20063;-75
2022/12/14 09:47:16;;;;;;;81.15;28.90;;;;;;;;;;5033500;28;20037;-75
2022/12/14 09:49:54;;;;;;;68.90;27.13;;;;;;;;;;5033323;28;20504;-75
2022/12/14 09:52:23;;;;;;;70.15;27.08;;;;;;;;;;5033765;28;20048;-75
2022/12/14 09:54:51;;;;;;;78.47;30.05;;;;;;;;;;5017031;28;20045;-75
2022/12/14 09:57:26;;;;;;;74.88;27.10;;;;;;;;;;5017458;28;20041;-75
2022/12/14 09:59:56;;;;;;;64.82;25.55;;;;;;;;;;5017244;28;20041;-75
2022/12/14 10:02:29;;;;;;;66.25;25.48;;;;;;;;;;5033551;28;20088;-75
2022/12/14 10:05:14;;;;;;;68.50;26.08;;;;;;;;;;5032907;28;20030;-74
2022/12/14 10:08:03;;;;;;;77.60;28.20;;;;;;;;;;5031427;28;20384;-74
2022/12/14 10:10:45;;;;;;;81.50;30.15;;;;;;;;;;5016277;28;20043;-74
2022/12/14 10:13:32;;;;;;;71.55;29.08;;;;;;;;;;5002163;28;20041;-74
2022/12/14 10:15:59;;;;;;;79.10;30.75;;;;;;;;;;5022844;28;20378;-74
2022/12/14 10:18:50;;;;;;;73.55;29.98;;;;;;;;;;5016369;28;20489;-74
2022/12/14 10:21:21;;;;;;;81.68;30.33;;;;;;;;;;5032982;28;20107;-74
2022/12/14 10:23:54;;;;;;;79.55;30.52;;;;;;;;;;5031562;28;20076;-74
2022/12/14 10:26:22;;;;;;;72.93;25.20;;;;;;;;;;5029613;28;20040;-74
2022/12/14 10:28:54;;;;;;;79.15;28.10;;;-2.70;99.90;;;;;;5029585;28;20041;-74
2022/12/14 10:32:04;;;;;;;67.53;26.15;;;-2.60;99.90;;;;;;5031772;28;20444;-74
2022/12/14 10:34:31;;;;;;;65.85;25.90;;;;;;;;;;5018055;28;20132;-74
2022/12/14 10:37:24;;;;;;;59.45;23.75;;;;;;;;;;5030404;28;20505;-74
2022/12/14 10:39:50;;;;;;;58.50;22.65;;;;;;;;;;5002749;28;20095;-74
2022/12/14 10:42:23;;;;;;;63.58;23.20;;;;;;;;;;5012581;28;20072;-74
2022/12/14 10:45:05;;;;;;;73.40;24.83;;;;;;;;;;5011756;28;20120;-74
2022/12/14 10:47:40;;;;;;;67.63;26.33;;;;;;;;;;5032521;28;20072;-74
2022/12/14 10:50:24;;;;;;;65.93;25.67;;;;;;;;;;5048714;28;20073;-74
2022/12/14 10:52:52;;;;;;;74.80;25.67;;;;;;;;;;5012809;28;20125;-74
2022/12/14 10:55:20;;;;;;;72.13;25.25;;;;;;;;;;5012527;28;20038;-74
2022/12/14 10:57:46;;;;;;;69.55;25.60;;;;;;;;;;5029091;28;20048;-75
2022/12/14 11:00:14;;;;;;;73.78;26.98;;;;;;;;;;5014055;28;20069;-74
2022/12/14 11:02:41;;;;;;;72.88;27.13;;;;;;;;;;5031940;28;20048;-74
2022/12/14 11:05:40;;;;;;;74.35;26.85;;;-1.60;99.90;;;;;;5031957;28;20072;-73
2022/12/14 11:08:06;;;;;;;67.78;26.10;;;-1.60;99.90;;;;;;5016009;28;20123;-74
2022/12/14 11:10:34;;;;;;;74.43;27.08;;;;;;;;;;5014786;28;20038;-75
2022/12/14 11:13:06;;;;;;;68.07;25.60;;;;;;;;;;5032192;28;20045;-75
2022/12/14 11:15:36;;;;;;;77.07;26.98;;;-1.20;99.90;;;;;;5030279;28;20053;-75
2022/12/14 11:18:11;;;;;;;61.97;23.58;;;;;;;;;;5031312;28;20497;-75
2022/12/14 11:20:48;;;;;;;62.22;22.45;;;;;;;;;;5029860;28;20046;-74
2022/12/14 11:23:19;;;;;;;63.10;22.13;;;;;;;;;;5031672;28;20133;-74
2022/12/14 11:25:47;;;;;;;59.53;22.58;;;-0.70;99.90;;;;;;5031090;28;20049;-75
2022/12/14 11:28:22;;;;;;;62.10;23.38;;;-0.80;99.90;;;;;;5031546;28;20045;-75
2022/12/14 11:30:57;;;;;;;63.53;23.40;;;-0.70;99.90;;;;;;5015159;28;20453;-75
2022/12/14 11:33:25;;;;;;;72.53;24.95;;;;;;;;;;5015842;28;20083;-75
2022/12/14 11:35:52;;;;;;;70.88;24.08;;;;;;;;;;5030984;28;20118;-75
2022/12/14 11:38:18;;;;;;;65.03;24.60;;;;;;;;;;4998872;28;20110;-75
2022/12/14 11:40:45;;;;;;;70.25;25.98;;;;;;;;;;5031680;28;20046;-75
2022/12/14 11:43:37;;;;;;;73.18;26.52;;;-0.10;99.90;;;;;;5015523;28;20047;-75
2022/12/14 11:46:04;;;;;;;77.10;27.52;;;0.10;99.90;;;;;;5009397;28;20054;-75
2022/12/14 11:48:30;;;;;;;74.78;27.27;;;0.30;99.90;;;;;;5031452;28;20056;-75
2022/12/14 11:51:12;;;;;;;75.50;26.73;;;0.30;99.90;;;;;;5031287;28;20397;-75
2022/12/14 11:53:39;;;;;;;58.63;19.33;;;;;;;;;;5014975;28;20126;-75
2022/12/14 11:56:12;;;;;;;56.83;21.23;;;0.60;99.90;;;;;;5015031;28;20041;-77
2022/12/14 11:58:47;;;;;;;51.67;19.48;;;0.60;99.90;;;;;;5014578;28;20038;-74
2022/12/14 12:01:15;;;;;;;49.88;18.48;;;;;;;;;;5011848;28;20037;-75
2022/12/14 12:03:49;;;;;;;48.38;18.73;;;0.40;99.90;;;;;;5013140;28;20053;-74
2022/12/14 12:06:19;;;;;;;49.45;17.35;;;;;;;;;;5032584;28;20117;-74
2022/12/14 12:08:45;;;;;;;43.63;17.00;;;;;;;;;;5018882;28;20038;-75
2022/12/14 12:11:16;;;;;;;46.85;17.50;;;;;;;;;;5035016;28;20090;-75
2022/12/14 12:13:43;;;;;;;46.53;17.60;;;;;;;;;;5017577;28;20401;-75
2022/12/14 12:16:10;;;;;;;43.63;16.88;;;;;;;;;;5035429;28;20074;-75
2022/12/14 12:18:45;;;;;;;39.75;16.73;;;0.80;99.90;;;;;;5034834;28;20033;-75
2022/12/14 12:21:29;;;;;;;42.63;17.08;;;;;;;;;;5034586;28;20103;-75
2022/12/14 12:23:58;;;;;;;48.80;15.57;;;;;;;;;;5034019;28;20045;-76
2022/12/14 12:26:27;;;;;;;39.03;15.95;;;;;;;;;;5034448;28;20080;-75
2022/12/14 12:29:08;;;;;;;46.13;18.17;;;0.40;99.90;;;;;;5035008;28;20044;-75
2022/12/14 12:31:44;;;;;;;39.53;15.57;;;0.50;99.90;;;;;;5016708;28;20091;-75
2022/12/14 12:34:24;;;;;;;43.15;15.05;;;0.70;99.90;;;;;;5018069;28;20393;-75
2022/12/14 12:36:51;;;;;;;46.47;15.43;;;;;;;;;;5034007;28;20557;-74
2022/12/14 12:39:23;;;;;;;39.92;16.13;;;;;;;;;;5016557;28;20489;-74
2022/12/14 12:41:58;;;;;;;45.97;17.48;;;;;;;;;;5016748;28;20052;-74
2022/12/14 12:44:59;;;;;;;46.08;17.15;;;0.80;99.90;;;;;;5034089;28;20127;-75
2022/12/14 12:47:41;;;;;;;40.28;14.38;;;0.70;99.90;;;;;;5033931;28;20482;-75
2022/12/14 12:50:13;;;;;;;42.97;15.18;;;;;;;;;;5017435;28;20029;-75
2022/12/14 12:52:50;;;;;;;41.13;14.65;;;;;;;;;;5034474;28;20439;-75
2022/12/14 12:55:18;;;;;;;53.28;17.77;;;1.30;99.90;;;;;;5017777;28;20477;-74
2022/12/14 12:57:53;;;;;;;38.00;16.10;;;1.30;99.90;;;;;;5034712;28;20037;-74
2022/12/14 13:00:24;;;;;;;59.20;18.08;;;1.50;99.90;;;;;;5033839;28;20053;-75
2022/12/14 13:02:53;;;;;;;39.97;16.35;;;;;;;;;;5033755;28;20107;-74
2022/12/14 13:05:23;;;;;;;41.58;15.75;;;1.50;99.90;;;;;;5033954;28;20068;-74
2022/12/14 13:07:54;;;;;;;43.72;17.77;;;1.70;99.90;;;;;;5034250;28;20476;-75
2022/12/14 13:10:29;;;;;;;48.10;17.67;;;1.90;99.90;;;;;;5017346;28;20033;-75
2022/12/14 13:12:59;;;;;;;39.55;15.88;;;2.10;99.90;;;;;;5034019;28;20037;-75
2022/12/14 13:16:02;;;;;;;42.95;16.05;;;2.30;99.90;;;;;;5033319;28;20038;-81
2022/12/14 13:18:36;;;;;;;41.47;17.00;;;2.10;99.90;;;;;;5024724;28;20049;-75
2022/12/14 13:21:15;;;;;;;48.85;16.40;;;;;;;;;;5033689;28;20064;-75
2022/12/14 13:23:41;;;;;;;38.83;16.45;;;;;;;;;;5033753;28;20049;-74
2022/12/14 13:26:40;;;;;;;41.28;16.90;;;2.50;99.90;;;;;;5033410;28;20044;-73
2022/12/14 13:29:15;;;;;;;41.55;16.20;;;;;;;;;;5034589;28;20053;-74
2022/12/14 13:31:59;;;;;;;42.10;16.73;;;2.60;99.90;;;;;;5032360;28;20532;-73
2022/12/14 13:34:25;;;;;;;42.95;16.85;;;;;;;;;;5032631;28;20048;-73
2022/12/14 13:37:00;;;;;;;45.63;15.48;;;;;;;;;;5032036;28;20065;-74
2022/12/14 13:39:38;;;;;;;42.03;16.02;;;;;;;;;;5033410;28;20099;-74
2022/12/14 13:42:27;;;;;;;40.72;14.93;;;;;;;;;;5000130;28;20041;-73
2022/12/14 13:44:54;;;;;;;40.35;15.40;;;;;;;;;;5015030;28;20049;-73
2022/12/14 13:47:38;;;;;;;48.08;16.13;;;2.70;99.90;;;;;;5033440;28;20100;-73
2022/12/14 13:50:05;;;;;;;43.08;16.00;;;;;;;;;;5033806;28;20083;-73
2022/12/14 13:52:35;;;;;;;41.25;17.58;;;;;;;;;;5032670;28;20464;-74
2022/12/14 13:55:01;;;;;;;46.60;16.90;;;;;;;;;;5033001;28;20061;-74
2022/12/14 13:57:27;;;;;;;44.63;17.00;;;;;;;;;;5016655;28;20120;-74
2022/12/14 13:59:57;;;;;;;55.67;18.52;;;;;;;;;;5032727;28;20060;-74
2022/12/14 14:02:29;;;;;;;53.88;19.55;;;;;;;;;;5032801;28;20037;-74
2022/12/14 14:05:17;;;;;;;51.25;20.13;;;;;;;;;;5010692;28;20048;-74
2022/12/14 14:07:52;;;;;;;49.90;19.63;;;;;;;;;;4987105;28;20045;-74
2022/12/14 14:10:31;;;;;;;40.67;18.58;;;;;;;;;;5032970;28;20127;-77
2022/12/14 14:12:57;;;;;;;40.45;17.00;;;;;;;;;;5032268;28;20087;-76
2022/12/14 14:15:26;;;;;;;45.50;18.10;;;;;;;;;;5032978;28;20041;-73
2022/12/14 14:17:53;;;;;;;57.55;18.95;;;;;;;;;;5016317;28;20049;-73
2022/12/14 14:20:28;;;;;;;56.17;19.70;;;;;;;;;;5032996;28;20056;-73
2022/12/14 14:23:13;;;;;;;51.72;19.65;;;;;;;;;;5016290;28;20405;-73
2022/12/14 14:25:48;;;;;;;57.50;21.33;;;;;;;;;;5016241;28;20037;-73
2022/12/14 14:28:15;;;;;;;47.85;18.92;;;;;;;;;;5032143;28;20370;-73
2022/12/14 14:30:53;;;;;;;50.35;20.52;;;1.50;99.90;;;;;;5032309;28;20053;-74
2022/12/14 14:33:37;;;;;;;53.35;19.55;;;1.60;99.90;;;;;;5032719;28;20034;-74